Time;durP1;ratioP1;P1;durP2;ratioP2;P2;SDS_P1;SDS_P2;PMS_P1;PMS_P2;Temp;Humidity;BMP_temperature;BMP_pressure;BME280_temperature;BME280_humidity;BME280_pressure;Samples;Min_cycle;Max_cycle;Signal;HPM_P1;HPM_P2
2023/03/12 00:01:39;;;;;;;;;22.50;22.50;;;;;;;;5218329;28;8978;-71
2023/03/12 00:04:11;;;;;;;;;22.20;22.20;;;;;;;;5214428;28;11495;-70
2023/03/12 00:06:42;;;;;;;;;9.80;9.60;;;;;;;;5266044;28;8794;-70
2023/03/12 00:09:13;;;;;;;;;9.80;8.60;;;;;;;;5269868;28;8771;-70
2023/03/12 00:11:44;;;;;;;;;19.50;18.50;;;;;;;;5251794;28;8826;-70
2023/03/12 00:14:16;;;;;;;;;48.40;45.40;;;;;;;;5234781;28;11477;-70
2023/03/12 00:16:46;;;;;;;;;47.50;45.00;;;;;;;;5224471;28;8797;-71
2023/03/12 00:19:17;;;;;;;;;36.00;35.40;;;;;;;;5244708;28;8802;-70
2023/03/12 00:21:49;;;;;;;;;24.80;24.20;;;;;;;;5251792;28;8770;-70
2023/03/12 00:24:20;;;;;;;;;26.80;26.80;;;;;;;;5248747;28;8818;-70
2023/03/12 00:26:52;;;;;;;;;39.80;39.60;;;;;;;;5230521;28;8785;-70
2023/03/12 00:29:24;;;;;;;;;41.60;41.20;;;;;;;;5230820;28;8787;-70
2023/03/12 00:31:55;;;;;;;;;35.80;35.40;;;;;;;;5230585;28;8817;-70
2023/03/12 00:34:26;;;;;;;;;21.00;20.20;;;;;;;;5231665;28;8819;-70
2023/03/12 00:36:57;;;;;;;;;16.60;16.60;;;;;;;;5214790;28;8899;-70
2023/03/12 00:39:28;;;;;;;;;23.40;20.40;;;;;;;;5251412;28;9607;-70
2023/03/12 00:42:00;;;;;;;;;12.00;11.60;;;;;;;;5269361;28;8774;-71
2023/03/12 00:44:31;;;;;;;;;12.80;12.80;;;;;;;;5240992;28;8796;-71
2023/03/12 00:47:02;;;;;;;;;15.00;13.00;;;;;;;;5214169;28;8773;-71
2023/03/12 00:49:33;;;;;;;;;20.75;19.50;;;;;;;;5213357;28;8773;-71
2023/03/12 00:52:04;;;;;;;;;22.75;20.00;;;;;;;;5231020;28;10581;-71
2023/03/12 00:54:35;;;;;;;;;43.60;39.40;;;;;;;;5213865;28;8753;-71
2023/03/12 00:57:07;;;;;;;;;40.80;37.40;;;;;;;;5205289;28;8795;-72
2023/03/12 00:59:41;;;;;;;;;28.00;27.00;;;;;;;;5234151;28;8807;-72
2023/03/12 01:02:13;;;;;;;;;15.80;15.40;;;;;;;;5234263;28;8772;-72
2023/03/12 01:04:44;;;;;;;;;10.40;9.40;;;;;;;;5236773;28;8788;-72
2023/03/12 01:07:15;;;;;;;;;8.20;8.20;;;;;;;;5229846;28;8790;-72
2023/03/12 01:09:46;;;;;;;;;12.00;12.00;;;;;;;;5247788;28;8769;-72
2023/03/12 01:12:17;;;;;;;;;9.40;8.60;;;;;;;;5229866;28;8930;-72
2023/03/12 01:14:48;;;;;;;;;4.50;4.50;;;;;;;;5230114;28;8801;-72
2023/03/12 01:17:19;;;;;;;;;6.00;4.00;;;;;;;;5212420;28;11418;-71
2023/03/12 01:19:50;;;;;;;;;7.00;7.00;;;;;;;;5250383;28;8790;-71
2023/03/12 01:22:21;;;;;;;;;6.60;6.60;;;;;;;;5232027;28;10114;-71
2023/03/12 01:24:53;;;;;;;;;3.20;3.20;;;;;;;;5250448;28;8790;-71
2023/03/12 01:27:42;;;;;;;;;2.20;1.80;;;;;;;;5268492;28;8770;-71
2023/03/12 01:30:13;;;;;;;;;9.00;9.00;;;;;;;;5233530;28;8802;-71
2023/03/12 01:32:44;;;;;;;;;6.20;6.20;;;;;;;;5268439;28;8785;-71
2023/03/12 01:35:15;;;;;;;;;5.80;5.80;;;;;;;;5227616;28;8796;-71
2023/03/12 01:37:46;;;;;;;;;3.00;3.00;;;;;;;;5247175;28;9518;-71
2023/03/12 01:40:35;;;;;;;;;12.20;12.20;;;;;;;;5215711;28;8834;-71
2023/03/12 01:43:25;;;;;;;;;12.00;12.00;;;;;;;;5213246;28;8923;-71
2023/03/12 01:46:01;;;;;;;;;12.80;11.80;;;;;;;;5196846;28;8808;-70
2023/03/12 01:48:45;;;;;;;;;12.80;12.80;;;;;;;;5192114;28;8992;-72
2023/03/12 01:51:38;;;;;;;;;11.20;11.20;;;;;;;;5235322;28;9499;-71
2023/03/12 01:54:16;;;;;;;;;7.80;7.80;;;;;;;;5230710;28;8825;-72
2023/03/12 01:56:48;;;;;;;;;9.00;8.60;;;;;;;;5229329;28;8773;-72
2023/03/12 01:59:24;;;;;;;;;8.60;8.00;;;;;;;;5228933;28;9534;-73
2023/03/12 02:01:56;;;;;;;;;7.00;7.00;;;;;;;;5221477;28;8802;-72
2023/03/12 02:04:46;;;;;;;;;10.80;9.60;;;;;;;;5252276;28;8774;-72
2023/03/12 02:07:18;;;;;;;;;13.00;13.00;;;;;;;;5249939;28;8778;-72
2023/03/12 02:09:50;;;;;;;;;10.40;10.20;;;;;;;;5233017;28;8799;-72
2023/03/12 02:12:40;;;;;;;;;20.60;18.80;;;;;;;;5245959;28;8819;-70
2023/03/12 02:15:29;;;;;;;;;9.40;9.40;;;;;;;;5246492;28;8792;-68
2023/03/12 02:18:02;;;;;;;;;19.20;19.00;;;;;;;;5195427;28;8824;-68
2023/03/12 02:20:38;;;;;;;;;9.00;9.00;;;;;;;;5229163;28;8812;-68
2023/03/12 02:23:36;;;;;;;;;6.60;6.60;;;;;;;;5212123;28;8839;-68
2023/03/12 02:26:08;;;;;;;;;4.00;4.00;;;;;;;;5194236;28;8821;-69
2023/03/12 02:28:44;;;;;;;;;9.00;9.00;;;;;;;;5207295;28;8786;-69
2023/03/12 02:31:23;;;;;;;;;7.00;7.00;;;;;;;;5204109;28;8808;-69
2023/03/12 02:33:54;;;;;;;;;5.60;5.60;;;;;;;;5216700;28;8826;-70
2023/03/12 02:36:26;;;;;;;;;7.00;7.00;;;;;;;;5245665;28;8786;-70
2023/03/12 02:38:58;;;;;;;;;3.40;3.40;;;;;;;;5226342;28;8847;-69
2023/03/12 02:41:54;;;;;;;;;6.40;6.40;;;;;;;;5225497;28;8790;-70
2023/03/12 02:44:28;;;;;;;;;3.00;3.00;;;;;;;;5191744;28;8781;-69
2023/03/12 02:47:00;;;;;;;;;3.40;3.40;;;;;;;;5207943;28;8927;-69
2023/03/12 02:49:33;;;;;;;;;3.00;3.00;;;;;;;;5207779;28;8790;-68
2023/03/12 02:52:05;;;;;;;;;3.60;3.60;;;;;;;;5208240;28;8825;-70
2023/03/12 02:54:36;;;;;;;;;8.60;8.60;;;;;;;;5224305;28;8812;-70
2023/03/12 02:57:07;;;;;;;;;1.00;1.00;;;;;;;;5224475;28;8774;-71
2023/03/12 02:59:39;;;;;;;;;17.00;16.00;;;;;;;;5207420;28;8798;-70
2023/03/12 03:02:28;;;;;;;;;27.80;25.60;;;;;;;;5225511;28;8789;-70
2023/03/12 03:05:00;;;;;;;;;21.80;21.60;;;;;;;;5191156;28;8944;-70
2023/03/12 03:07:31;;;;;;;;;12.50;12.50;;;;;;;;5225432;28;8920;-69
2023/03/12 03:10:03;;;;;;;;;5.00;5.00;;;;;;;;5206992;28;9469;-70
2023/03/12 03:12:35;;;;;;;;;14.40;14.00;;;;;;;;5223887;28;11467;-70
2023/03/12 03:15:24;;;;;;;;;12.80;11.60;;;;;;;;5224039;28;8811;-70
2023/03/12 03:17:57;;;;;;;;;12.60;12.60;;;;;;;;5205248;28;8794;-69
2023/03/12 03:20:28;;;;;;;;;14.60;14.60;;;;;;;;5207177;28;8809;-69
2023/03/12 03:22:59;;;;;;;;;13.00;12.80;;;;;;;;5205151;28;8790;-70
2023/03/12 03:25:31;;;;;;;;;12.40;10.00;;;;;;;;5223149;28;9574;-70
2023/03/12 03:28:03;;;;;;;;;12.60;12.60;;;;;;;;5207662;28;8800;-69
2023/03/12 03:30:34;;;;;;;;;15.00;13.00;;;;;;;;5225440;28;8829;-69
2023/03/12 03:33:08;;;;;;;;;13.80;13.80;;;;;;;;5212400;28;8817;-69
2023/03/12 03:35:39;;;;;;;;;12.75;12.00;;;;;;;;5227817;28;8778;-69
2023/03/12 03:38:10;;;;;;;;;17.80;17.80;;;;;;;;5242304;28;8834;-69
2023/03/12 03:40:41;;;;;;;;;14.60;14.60;;;;;;;;5232441;28;8798;-69
2023/03/12 03:43:12;;;;;;;;;17.20;16.80;;;;;;;;5248525;28;8781;-69
2023/03/12 03:45:43;;;;;;;;;19.60;18.60;;;;;;;;5248236;28;8821;-69
2023/03/12 03:48:14;;;;;;;;;18.60;18.60;;;;;;;;5248051;28;8787;-69
2023/03/12 03:50:46;;;;;;;;;14.60;14.60;;;;;;;;5247221;28;8957;-70
2023/03/12 03:53:19;;;;;;;;;15.60;15.60;;;;;;;;5227250;28;8810;-69
2023/03/12 03:55:51;;;;;;;;;11.40;11.00;;;;;;;;5227362;28;8846;-69
2023/03/12 03:58:22;;;;;;;;;20.00;18.40;;;;;;;;5227302;28;8789;-69
2023/03/12 04:00:53;;;;;;;;;15.80;13.40;;;;;;;;5228439;28;8810;-69
2023/03/12 04:03:24;;;;;;;;;21.00;20.20;;;;;;;;5210198;28;8869;-69
2023/03/12 04:05:58;;;;;;;;;18.60;13.80;;;;;;;;5210629;28;8779;-69
2023/03/12 04:08:31;;;;;;;;;9.00;8.60;;;;;;;;5210661;28;8783;-69
2023/03/12 04:11:06;;;;;;;;;6.00;6.00;;;;;;;;5227098;28;9647;-69
2023/03/12 04:13:37;;;;;;;;;8.60;8.60;;;;;;;;5226888;28;8838;-69
2023/03/12 04:16:09;;;;;;;;;14.20;14.20;;;;;;;;5237152;28;8917;-69
2023/03/12 04:18:41;;;;;;;;;9.80;9.00;;;;;;;;5247460;28;8807;-69
2023/03/12 04:21:12;;;;;;;;;17.60;16.00;;;;;;;;5230872;28;8795;-69
2023/03/12 04:23:44;;;;;;;;;19.80;19.00;;;;;;;;5247629;28;9583;-69
2023/03/12 04:26:17;;;;;;;;;20.60;18.80;;;;;;;;5230667;28;8799;-69
2023/03/12 04:29:06;;;;;;;;;26.20;26.20;;;;;;;;5247340;28;8801;-72
2023/03/12 04:31:38;;;;;;;;;30.40;29.80;;;;;;;;5210055;28;8818;-69
2023/03/12 04:34:09;;;;;;;;;30.80;30.80;;;;;;;;5227761;28;8802;-69
2023/03/12 04:36:40;;;;;;;;;15.00;14.60;;;;;;;;5226491;28;8810;-68
2023/03/12 04:39:11;;;;;;;;;20.20;20.20;;;;;;;;5226462;28;8797;-68
2023/03/12 04:41:43;;;;;;;;;14.60;14.60;;;;;;;;5209671;28;8793;-69
2023/03/12 04:44:18;;;;;;;;;35.40;34.20;;;;;;;;5229565;28;8864;-68
2023/03/12 04:46:49;;;;;;;;;15.75;15.75;;;;;;;;5230964;28;8827;-69
2023/03/12 04:49:23;;;;;;;;;26.00;23.80;;;;;;;;5205505;28;11544;-69
2023/03/12 04:51:54;;;;;;;;;40.20;40.20;;;;;;;;5200733;28;8826;-72
2023/03/12 04:54:26;;;;;;;;;32.40;32.40;;;;;;;;5226265;28;8796;-69
2023/03/12 04:56:57;;;;;;;;;56.40;51.60;;;;;;;;5193254;28;8798;-69
2023/03/12 04:59:47;;;;;;;;;39.80;38.40;;;;;;;;5227454;28;8785;-69
2023/03/12 05:02:18;;;;;;;;;20.20;20.20;;;;;;;;5209529;28;8793;-68
2023/03/12 05:04:49;;;;;;;;;24.60;24.60;;;;;;;;5209518;28;8851;-69
2023/03/12 05:07:20;;;;;;;;;15.60;15.60;;;;;;;;5246704;28;8805;-69
2023/03/12 05:09:51;;;;;;;;;17.60;17.60;;;;;;;;5227480;28;8818;-69
2023/03/12 05:12:41;;;;;;;;;23.20;23.20;;;;;;;;5215347;28;8935;-71
2023/03/12 05:15:12;;;;;;;;;23.00;23.00;;;;;;;;5226266;28;8894;-67
2023/03/12 05:17:43;;;;;;;;;12.25;12.25;;;;;;;;5245828;28;8775;-68
2023/03/12 05:20:33;;;;;;;;;3.80;3.80;;;;;;;;5244655;28;10802;-70
2023/03/12 05:23:05;;;;;;;;;9.20;9.20;;;;;;;;5227886;28;8918;-69
2023/03/12 05:25:40;;;;;;;;;8.80;8.40;;;;;;;;5236913;28;8810;-69
2023/03/12 05:28:12;;;;;;;;;8.80;8.80;;;;;;;;5238603;28;8870;-69
2023/03/12 05:30:43;;;;;;;;;16.00;16.00;;;;;;;;5248243;28;8826;-69
2023/03/12 05:33:14;;;;;;;;;15.60;15.60;;;;;;;;5248767;28;8801;-67
2023/03/12 05:35:46;;;;;;;;;15.60;15.20;;;;;;;;5266081;28;8770;-70
2023/03/12 05:38:17;;;;;;;;;9.80;9.20;;;;;;;;5248334;28;8917;-68
2023/03/12 05:40:53;;;;;;;;;11.40;11.40;;;;;;;;5218739;28;8950;-71
2023/03/12 05:43:26;;;;;;;;;19.60;19.00;;;;;;;;5227642;28;8800;-69
2023/03/12 05:45:59;;;;;;;;;17.60;16.00;;;;;;;;5209768;28;9599;-70
2023/03/12 05:48:32;;;;;;;;;12.60;12.60;;;;;;;;5213108;28;8784;-68
2023/03/12 05:51:04;;;;;;;;;13.00;12.20;;;;;;;;5213371;28;9525;-68
2023/03/12 05:53:37;;;;;;;;;14.40;14.40;;;;;;;;5211251;28;8804;-69
2023/03/12 05:56:26;;;;;;;;;17.20;17.00;;;;;;;;5215493;28;8803;-69
2023/03/12 05:58:57;;;;;;;;;27.80;26.60;;;;;;;;5229119;28;8796;-69
2023/03/12 06:01:29;;;;;;;;;29.00;28.00;;;;;;;;5228978;28;8803;-69
2023/03/12 06:04:03;;;;;;;;;27.60;25.80;;;;;;;;5196159;28;8777;-70
2023/03/12 06:06:35;;;;;;;;;23.80;23.60;;;;;;;;5192059;28;8813;-69
2023/03/12 06:09:07;;;;;;;;;17.20;17.20;;;;;;;;5208540;28;9567;-67
2023/03/12 06:11:39;;;;;;;;;19.00;16.40;;;;;;;;5208264;28;9606;-68
2023/03/12 06:14:10;;;;;;;;;14.80;13.00;;;;;;;;5228928;28;8852;-68
2023/03/12 06:17:00;;;;;;;;;15.40;15.40;;;;;;;;5231790;28;8772;-69
2023/03/12 06:19:32;;;;;;;;;16.40;16.40;;;;;;;;5195913;28;8798;-69
2023/03/12 06:22:04;;;;;;;;;20.40;17.80;;;;;;;;5228684;28;8866;-69
2023/03/12 06:24:35;;;;;;;;;16.20;15.00;;;;;;;;5222247;28;8818;-68
2023/03/12 06:27:09;;;;;;;;;15.80;15.80;;;;;;;;5233109;28;9584;-68
2023/03/12 06:29:40;;;;;;;;;15.00;15.00;;;;;;;;5267057;28;8798;-69
2023/03/12 06:32:30;;;;;;;;;14.00;12.40;;;;;;;;5251452;28;11482;-68
2023/03/12 06:35:03;;;;;;;;;9.20;8.80;;;;;;;;5249223;28;8802;-68
2023/03/12 06:37:34;;;;;;;;;14.00;14.00;;;;;;;;5249081;28;8783;-68
2023/03/12 06:40:08;;;;;;;;;19.50;18.50;;;;;;;;5267035;28;8812;-68
2023/03/12 06:42:58;;;;;;;;;32.60;31.00;;;;;;;;5253577;28;8792;-68
2023/03/12 06:45:29;;;;;;;;;14.00;13.00;;;;;;;;5211622;28;8801;-68
2023/03/12 06:48:18;;;;;;;;;14.20;13.20;;;;;;;;5231720;28;8757;-68
2023/03/12 06:50:50;;;;;;;;;11.75;11.75;;;;;;;;5247512;28;8932;-68
2023/03/12 06:53:22;;;;;;;;;12.80;12.80;;;;;;;;5258104;28;8812;-68
2023/03/12 06:55:54;;;;;;;;;15.20;14.60;;;;;;;;5246280;28;8757;-68
2023/03/12 06:58:25;;;;;;;;;15.20;15.20;;;;;;;;5228835;28;8907;-68
2023/03/12 07:00:57;;;;;;;;;9.40;9.40;;;;;;;;5253365;28;8923;-68
2023/03/12 07:03:28;;;;;;;;;18.20;17.60;;;;;;;;5221176;28;8895;-68
2023/03/12 07:06:00;;;;;;;;;18.20;18.00;;;;;;;;5230657;28;8824;-68
2023/03/12 07:08:31;;;;;;;;;11.20;11.20;;;;;;;;5215538;28;8816;-68
2023/03/12 07:11:02;;;;;;;;;11.60;11.60;;;;;;;;5232532;28;8800;-68
2023/03/12 07:13:33;;;;;;;;;11.80;11.80;;;;;;;;5215271;28;8776;-69
2023/03/12 07:16:04;;;;;;;;;9.00;9.00;;;;;;;;5249048;28;8899;-69
2023/03/12 07:18:35;;;;;;;;;9.00;9.00;;;;;;;;5245675;28;8786;-69
2023/03/12 07:21:06;;;;;;;;;11.00;11.00;;;;;;;;5234714;28;8782;-69
2023/03/12 07:23:37;;;;;;;;;10.00;9.00;;;;;;;;5250140;28;11419;-70
2023/03/12 07:26:08;;;;;;;;;6.25;6.25;;;;;;;;5231708;28;11609;-69
2023/03/12 07:28:39;;;;;;;;;9.00;9.00;;;;;;;;5251774;28;8784;-68
2023/03/12 07:31:10;;;;;;;;;10.20;10.20;;;;;;;;5220220;28;8815;-69
2023/03/12 07:33:41;;;;;;;;;13.40;13.40;;;;;;;;5248017;28;8795;-70
2023/03/12 07:36:31;;;;;;;;;15.40;15.40;;;;;;;;5249349;28;8846;-68
2023/03/12 07:39:03;;;;;;;;;13.00;13.00;;;;;;;;5226220;28;8805;-68
2023/03/12 07:41:36;;;;;;;;;17.40;17.40;;;;;;;;5219729;28;8796;-68
2023/03/12 07:44:08;;;;;;;;;21.20;21.00;;;;;;;;5218700;28;8798;-69
2023/03/12 07:46:39;;;;;;;;;12.80;10.20;;;;;;;;5231773;28;8831;-68
2023/03/12 07:49:10;;;;;;;;;7.40;7.40;;;;;;;;5222719;28;8806;-68
2023/03/12 07:51:41;;;;;;;;;10.60;10.60;;;;;;;;5242938;28;8931;-69
2023/03/12 07:54:14;;;;;;;;;17.00;17.00;;;;;;;;5211227;28;8787;-68
2023/03/12 07:56:45;;;;;;;;;10.60;10.60;;;;;;;;5249482;28;8781;-69
2023/03/12 07:59:34;;;;;;;;;28.60;26.00;;;;;;;;5239514;28;8792;-68
2023/03/12 08:02:05;;;;;;;;;25.50;23.50;;;;;;;;5215715;28;8858;-68
2023/03/12 08:04:36;;;;;;;;;27.40;25.60;;;;;;;;5250246;28;8811;-68
2023/03/12 08:07:07;;;;;;;;;16.80;16.80;;;;;;;;5218232;28;8859;-68
2023/03/12 08:09:39;;;;;;;;;10.00;10.00;;;;;;;;5237613;28;8814;-69
2023/03/12 08:12:10;;;;;;;;;9.40;9.40;;;;;;;;5231770;28;8846;-69
2023/03/12 08:14:41;;;;;;;;;11.00;11.00;;;;;;;;5222585;28;8783;-68
2023/03/12 08:17:12;;;;;;;;;47.60;40.60;;;;;;;;5236504;28;8803;-68
2023/03/12 08:19:42;;;;;;;;;16.00;16.00;;;;;;;;5248121;28;8859;-68
2023/03/12 08:22:13;;;;;;;;;8.75;8.75;;;;;;;;5267729;28;8798;-68
2023/03/12 08:24:45;;;;;;;;;11.80;11.80;;;;;;;;5239310;28;11383;-68
2023/03/12 08:27:15;;;;;;;;;10.00;10.00;;;;;;;;5226111;28;9570;-69
2023/03/12 08:29:46;;;;;;;;;11.20;11.20;;;;;;;;5214225;28;10413;-70
2023/03/12 08:32:36;;;;;;;;;14.00;13.40;;;;;;;;5239594;28;8842;-69
2023/03/12 08:35:25;;;;;;;;;8.80;8.80;;;;;;;;5244825;28;8784;-68
2023/03/12 08:37:55;;;;;;;;;10.00;9.75;;;;;;;;5265589;28;8973;-68
2023/03/12 08:40:27;;;;;;;;;14.20;14.20;;;;;;;;5226515;28;8804;-69
2023/03/12 08:42:58;;;;;;;;;9.60;9.60;;;;;;;;5215322;28;9503;-66
2023/03/12 08:45:29;;;;;;;;;16.80;15.40;;;;;;;;5249794;28;8894;-67
2023/03/12 08:48:00;;;;;;;;;9.80;9.80;;;;;;;;5225332;28;9522;-67
2023/03/12 08:50:32;;;;;;;;;10.20;9.60;;;;;;;;5233681;28;8840;-69
2023/03/12 08:53:03;;;;;;;;;10.00;10.00;;;;;;;;5212221;28;8893;-67
2023/03/12 08:55:33;;;;;;;;;11.20;11.20;;;;;;;;5231512;28;9744;-68
2023/03/12 08:58:04;;;;;;;;;11.25;10.25;;;;;;;;5259812;28;8787;-68
2023/03/12 09:00:35;;;;;;;;;10.50;9.00;;;;;;;;5249127;28;11465;-68
2023/03/12 09:03:06;;;;;;;;;28.75;27.75;;;;;;;;5213223;28;8792;-68
2023/03/12 09:05:37;;;;;;;;;16.50;16.50;;;;;;;;5248266;28;9972;-68
2023/03/12 09:08:09;;;;;;;;;10.25;10.00;;;;;;;;5230141;28;8905;-68
2023/03/12 09:10:40;;;;;;;;;13.20;13.20;;;;;;;;5247476;28;11451;-68
2023/03/12 09:13:11;;;;;;;;;14.25;14.25;;;;;;;;5247664;28;8781;-68
2023/03/12 09:15:41;;;;;;;;;17.00;16.50;;;;;;;;5247602;28;8793;-68
2023/03/12 09:18:12;;;;;;;;;13.20;13.20;;;;;;;;5230178;28;8880;-68
2023/03/12 09:20:43;;;;;;;;;8.75;8.75;;;;;;;;5247521;28;8781;-68
2023/03/12 09:23:14;;;;;;;;;12.00;12.00;;;;;;;;5230224;28;8853;-68
2023/03/12 09:25:46;;;;;;;;;10.00;10.00;;;;;;;;5212527;28;10134;-68
2023/03/12 09:28:17;;;;;;;;;13.20;12.80;;;;;;;;5229270;28;8855;-68
2023/03/12 09:30:49;;;;;;;;;14.40;14.40;;;;;;;;5229298;28;8895;-68
2023/03/12 09:33:20;;;;;;;;;8.60;8.60;;;;;;;;5196547;28;9540;-68
2023/03/12 09:35:56;;;;;;;;;9.40;9.40;;;;;;;;5246935;28;8816;-68
2023/03/12 09:38:30;;;;;;;;;10.20;10.20;;;;;;;;5247018;28;8788;-68
2023/03/12 09:41:02;;;;;;;;;11.80;11.20;;;;;;;;5212593;28;8777;-68
2023/03/12 09:43:46;;;;;;;;;10.40;10.40;;;;;;;;5196192;28;8911;-68
2023/03/12 09:46:21;;;;;;;;;8.60;8.60;;;;;;;;5229493;28;8801;-68
2023/03/12 09:48:54;;;;;;;;;23.40;22.80;;;;;;;;5212372;28;8807;-68
2023/03/12 09:51:31;;;;;;;;;16.40;16.40;;;;;;;;5229127;28;8817;-68
2023/03/12 09:54:06;;;;;;;;;21.80;19.80;;;;;;;;5212544;28;8946;-68
2023/03/12 09:56:37;;;;;;;;;18.00;17.00;;;;;;;;5212399;28;8970;-68
2023/03/12 09:59:11;;;;;;;;;22.20;18.80;;;;;;;;5229055;28;8780;-68
2023/03/12 10:01:58;;;;;;;;;12.60;12.00;;;;;;;;5228882;28;8784;-68
2023/03/12 10:04:39;;;;;;;;;15.60;15.20;;;;;;;;5212353;28;8796;-67
2023/03/12 10:07:30;;;;;;;;;13.80;13.40;;;;;;;;5246806;28;8915;-67
2023/03/12 10:10:37;;;;;;;;;26.60;21.60;;;;;;;;5246003;28;9142;-67
2023/03/12 10:13:14;;;;;;;;;10.80;10.80;;;;;;;;5146042;28;8840;-67
2023/03/12 10:16:24;;;;;;;;;13.00;13.00;;;;;;;;5231512;28;8807;-67
2023/03/12 10:19:03;;;;;;;;;9.80;9.80;;;;;;;;5232468;28;8796;-67
2023/03/12 10:21:41;;;;;;;;;9.20;9.20;;;;;;;;5228719;28;8939;-68
2023/03/12 10:24:30;;;;;;;;;11.60;11.60;;;;;;;;5211852;28;8881;-68
2023/03/12 10:27:01;;;;;;;;;10.00;9.40;;;;;;;;5246766;28;8911;-68
2023/03/12 10:29:35;;;;;;;;;12.40;12.00;;;;;;;;5228495;28;8862;-68
2023/03/12 10:32:11;;;;;;;;;10.00;10.00;;;;;;;;5228284;28;9594;-68
2023/03/12 10:34:48;;;;;;;;;11.60;11.20;;;;;;;;5246417;28;8796;-69
2023/03/12 10:37:28;;;;;;;;;6.20;6.20;;;;;;;;5212005;28;8773;-68
2023/03/12 10:40:00;;;;;;;;;9.40;9.40;;;;;;;;5211168;28;8777;-68
2023/03/12 10:42:32;;;;;;;;;9.60;9.60;;;;;;;;5211756;28;8824;-67
2023/03/12 10:45:23;;;;;;;;;11.40;11.40;;;;;;;;5246017;28;8827;-67
2023/03/12 10:48:20;;;;;;;;;10.60;10.60;;;;;;;;5201265;28;8784;-67
2023/03/12 10:51:11;;;;;;;;;9.20;9.20;;;;;;;;5231034;28;8805;-67
2023/03/12 10:53:49;;;;;;;;;14.80;14.40;;;;;;;;5246049;28;8793;-66
2023/03/12 10:56:20;;;;;;;;;14.20;13.60;;;;;;;;5195351;28;8799;-66
2023/03/12 10:58:52;;;;;;;;;16.20;15.80;;;;;;;;5211361;28;8799;-66
2023/03/12 11:01:46;;;;;;;;;13.40;13.40;;;;;;;;5231108;28;8907;-66
2023/03/12 11:04:21;;;;;;;;;15.40;15.00;;;;;;;;5195146;28;8781;-66
2023/03/12 11:07:11;;;;;;;;;10.40;9.60;;;;;;;;5211311;28;8801;-67
2023/03/12 11:09:42;;;;;;;;;10.20;10.20;;;;;;;;5245804;28;8788;-67
2023/03/12 11:12:25;;;;;;;;;11.00;11.00;;;;;;;;5211158;28;9569;-67
2023/03/12 11:14:56;;;;;;;;;8.20;8.20;;;;;;;;5211754;28;8945;-66
2023/03/12 11:17:28;;;;;;;;;10.00;10.00;;;;;;;;5211163;28;8769;-66
2023/03/12 11:20:16;;;;;;;;;2.40;2.40;;;;;;;;5211249;28;8777;-66
2023/03/12 11:22:47;;;;;;;;;12.20;12.20;;;;;;;;5227834;28;8761;-66
2023/03/12 11:25:26;;;;;;;;;8.25;8.25;;;;;;;;5228167;28;8850;-66
2023/03/12 11:28:00;;;;;;;;;8.40;8.40;;;;;;;;5228249;28;8886;-66
2023/03/12 11:30:35;;;;;;;;;7.00;7.00;;;;;;;;5195176;28;9487;-66
2023/03/12 11:33:08;;;;;;;;;10.80;10.80;;;;;;;;5211134;28;8753;-67
2023/03/12 11:35:48;;;;;;;;;8.40;8.40;;;;;;;;5211098;28;8769;-66
2023/03/12 11:38:40;;;;;;;;;13.20;13.20;;;;;;;;5194957;28;8897;-66
2023/03/12 11:41:11;;;;;;;;;10.00;9.60;;;;;;;;5245331;28;8768;-67
2023/03/12 11:43:47;;;;;;;;;11.00;11.00;;;;;;;;5245513;28;8788;-67
2023/03/12 11:46:24;;;;;;;;;12.40;12.40;;;;;;;;5211504;28;8804;-67
2023/03/12 11:48:58;;;;;;;;;12.80;12.80;;;;;;;;5227881;28;8812;-67
2023/03/12 11:51:40;;;;;;;;;12.00;12.00;;;;;;;;5196300;28;9539;-67
2023/03/12 11:54:22;;;;;;;;;20.20;20.20;;;;;;;;5214766;28;8919;-67
2023/03/12 11:56:55;;;;;;;;;13.20;12.00;;;;;;;;5231917;28;8899;-67
2023/03/12 11:59:29;;;;;;;;;12.80;12.80;;;;;;;;5231434;28;8793;-67
2023/03/12 12:02:00;;;;;;;;;16.20;15.60;;;;;;;;5198238;28;8796;-67
2023/03/12 12:04:34;;;;;;;;;21.50;21.25;;;;;;;;5231209;28;8777;-67
2023/03/12 12:07:37;;;;;;;;;21.80;21.80;;;;;;;;5198040;28;8866;-67
2023/03/12 12:10:21;;;;;;;;;9.80;9.80;;;;;;;;5249362;28;8815;-67
2023/03/12 12:13:07;;;;;;;;;7.80;7.80;;;;;;;;5231066;28;8831;-67
2023/03/12 12:15:50;;;;;;;;;14.20;14.20;;;;;;;;5214504;28;8776;-67
2023/03/12 12:18:34;;;;;;;;;21.60;21.60;;;;;;;;5214304;28;8787;-67
2023/03/12 12:21:11;;;;;;;;;14.60;14.60;;;;;;;;5197878;28;8858;-67
2023/03/12 12:24:01;;;;;;;;;16.00;16.00;;;;;;;;5198052;28;9464;-67
2023/03/12 12:26:43;;;;;;;;;20.60;20.60;;;;;;;;5231130;28;8824;-67
2023/03/12 12:29:33;;;;;;;;;15.40;15.00;;;;;;;;5231098;28;8789;-67
2023/03/12 12:32:04;;;;;;;;;10.40;10.40;;;;;;;;5231080;28;8804;-67
2023/03/12 12:34:50;;;;;;;;;19.80;19.80;;;;;;;;5214388;28;8831;-67
2023/03/12 12:37:22;;;;;;;;;21.40;21.40;;;;;;;;5230796;28;8808;-66
2023/03/12 12:40:07;;;;;;;;;18.25;18.25;;;;;;;;5248388;28;8800;-67
2023/03/12 12:42:56;;;;;;;;;18.20;18.20;;;;;;;;5231042;28;10290;-66
2023/03/12 12:45:27;;;;;;;;;19.20;19.20;;;;;;;;5230734;28;8854;-66
2023/03/12 12:48:11;;;;;;;;;16.80;16.80;;;;;;;;5213838;28;8788;-66
2023/03/12 12:51:02;;;;;;;;;19.60;18.60;;;;;;;;5233647;28;8808;-66
2023/03/12 12:53:33;;;;;;;;;18.20;18.20;;;;;;;;5214111;28;8781;-66
2023/03/12 12:56:06;;;;;;;;;15.00;15.00;;;;;;;;5248300;28;9480;-66
2023/03/12 12:58:56;;;;;;;;;17.00;16.20;;;;;;;;5197290;28;8949;-66
2023/03/12 13:01:29;;;;;;;;;16.40;16.40;;;;;;;;5213690;28;8787;-66
2023/03/12 13:04:22;;;;;;;;;15.80;15.80;;;;;;;;5213396;28;8768;-66
2023/03/12 13:07:12;;;;;;;;;17.80;16.80;;;;;;;;5229937;28;8797;-66
2023/03/12 13:09:44;;;;;;;;;11.50;11.50;;;;;;;;5229882;28;8841;-66
2023/03/12 13:12:34;;;;;;;;;18.60;18.00;;;;;;;;5229873;28;8927;-66
2023/03/12 13:15:23;;;;;;;;;17.00;17.00;;;;;;;;5247848;28;8761;-68
2023/03/12 13:17:54;;;;;;;;;23.80;23.00;;;;;;;;5248154;28;8777;-66
2023/03/12 13:20:31;;;;;;;;;22.25;21.50;;;;;;;;5247661;28;9509;-66
2023/03/12 13:23:24;;;;;;;;;20.40;20.40;;;;;;;;5232531;28;11441;-66
2023/03/12 13:26:18;;;;;;;;;15.60;15.40;;;;;;;;5196703;28;8848;-67
2023/03/12 13:28:52;;;;;;;;;18.20;18.20;;;;;;;;5236987;28;8792;-66
2023/03/12 13:31:26;;;;;;;;;19.80;17.80;;;;;;;;5213017;28;8865;-66
2023/03/12 13:34:07;;;;;;;;;19.00;19.00;;;;;;;;5196405;28;8778;-67
2023/03/12 13:36:38;;;;;;;;;31.20;31.20;;;;;;;;5229915;28;8789;-66
2023/03/12 13:39:34;;;;;;;;;15.40;15.40;;;;;;;;5247632;28;8768;-67
2023/03/12 13:42:24;;;;;;;;;17.40;17.40;;;;;;;;5229761;28;8798;-67
2023/03/12 13:44:55;;;;;;;;;23.00;23.00;;;;;;;;5229734;28;8803;-67
2023/03/12 13:47:28;;;;;;;;;20.00;19.80;;;;;;;;5229209;28;8784;-67
2023/03/12 13:50:07;;;;;;;;;23.80;23.80;;;;;;;;5212684;28;8793;-66
2023/03/12 13:52:38;;;;;;;;;23.00;23.00;;;;;;;;5247044;28;8950;-67
2023/03/12 13:55:12;;;;;;;;;15.00;15.00;;;;;;;;5247094;28;9606;-67
2023/03/12 13:57:44;;;;;;;;;19.60;19.60;;;;;;;;5212754;28;12254;-67
2023/03/12 14:00:24;;;;;;;;;23.00;22.00;;;;;;;;5196045;28;8785;-67
2023/03/12 14:02:59;;;;;;;;;22.00;21.40;;;;;;;;5229267;28;8819;-67
2023/03/12 14:05:43;;;;;;;;;14.80;14.80;;;;;;;;5212194;28;8789;-67
2023/03/12 14:08:26;;;;;;;;;16.40;16.40;;;;;;;;5212802;28;9554;-67
2023/03/12 14:11:16;;;;;;;;;13.00;13.00;;;;;;;;5212466;28;8816;-67
2023/03/12 14:14:15;;;;;;;;;11.80;11.80;;;;;;;;5231055;28;9500;-67
2023/03/12 14:16:48;;;;;;;;;17.80;17.20;;;;;;;;5246306;28;8792;-67
2023/03/12 14:19:23;;;;;;;;;21.60;21.40;;;;;;;;5211909;28;8788;-67
2023/03/12 14:21:55;;;;;;;;;24.20;24.20;;;;;;;;5211815;28;8807;-67
2023/03/12 14:24:28;;;;;;;;;18.40;18.00;;;;;;;;5212099;28;8788;-68
2023/03/12 14:27:01;;;;;;;;;15.20;15.20;;;;;;;;5214216;28;8821;-66
2023/03/12 14:29:35;;;;;;;;;22.60;22.60;;;;;;;;5254277;28;8798;-67
2023/03/12 14:32:12;;;;;;;;;27.60;27.60;;;;;;;;5248930;28;8810;-67
2023/03/12 14:35:02;;;;;;;;;18.40;18.00;;;;;;;;5249259;28;8771;-67
2023/03/12 14:37:42;;;;;;;;;38.20;37.00;;;;;;;;5249230;28;8799;-67
2023/03/12 14:40:44;;;;;;;;;28.80;27.60;;;;;;;;5248045;28;8833;-68
2023/03/12 14:43:19;;;;;;;;;24.80;24.60;;;;;;;;5237042;28;8838;-67
2023/03/12 14:45:54;;;;;;;;;24.80;24.40;;;;;;;;5228308;28;8813;-67
2023/03/12 14:48:46;;;;;;;;;30.40;30.40;;;;;;;;5230896;28;8753;-68
2023/03/12 14:51:36;;;;;;;;;25.00;23.40;;;;;;;;5222628;28;8844;-67
2023/03/12 14:54:15;;;;;;;;;11.20;11.20;;;;;;;;5266950;28;8797;-67
2023/03/12 14:56:46;;;;;;;;;25.80;25.00;;;;;;;;5215865;28;8764;-67
2023/03/12 14:59:28;;;;;;;;;26.40;23.80;;;;;;;;5246029;28;8845;-67
2023/03/12 15:02:28;;;;;;;;;21.20;21.20;;;;;;;;5228234;28;8780;-67
2023/03/12 15:05:00;;;;;;;;;29.80;29.80;;;;;;;;5228807;28;8967;-67
2023/03/12 15:07:33;;;;;;;;;28.80;28.80;;;;;;;;5246065;28;8803;-67
2023/03/12 15:10:05;;;;;;;;;30.20;28.60;;;;;;;;5244445;28;8767;-67
2023/03/12 15:12:37;;;;;;;;;26.80;26.20;;;;;;;;5228108;28;8846;-67
2023/03/12 15:15:10;;;;;;;;;23.00;19.40;;;;;;;;5246648;28;8771;-67
2023/03/12 15:17:42;;;;;;;;;22.20;22.20;;;;;;;;5226900;28;8808;-67
2023/03/12 15:20:14;;;;;;;;;21.60;20.80;;;;;;;;5207873;28;8817;-67
2023/03/12 15:22:45;;;;;;;;;31.80;29.60;;;;;;;;5249225;28;8856;-66
2023/03/12 15:25:22;;;;;;;;;25.60;24.60;;;;;;;;5232033;28;9493;-68
2023/03/12 15:28:04;;;;;;;;;33.40;32.00;;;;;;;;5235964;28;8844;-68